createdAt,value
2019-05-28T00:01:33.594Z,91.92
2019-05-28T00:04:00.289Z,92.04
2019-05-28T00:06:26.882Z,91.83
2019-05-28T00:08:53.443Z,91.93
2019-05-28T00:11:19.987Z,91.99
2019-05-28T00:13:46.730Z,92.29
2019-05-28T00:16:13.479Z,92.79
2019-05-28T00:18:40.290Z,92.79
2019-05-28T00:21:06.857Z,93.23
2019-05-28T00:23:33.387Z,93.45
2019-05-28T00:26:02.578Z,94.16
2019-05-28T00:28:29.095Z,94.29
2019-05-28T00:30:55.622Z,94.07
2019-05-28T00:33:22.485Z,94.58
2019-05-28T00:35:49.063Z,94.62
2019-05-28T00:38:15.627Z,94.46
2019-05-28T00:40:42.144Z,94.62
2019-05-28T00:43:08.708Z,94.42
2019-05-28T00:45:35.529Z,95.01
2019-05-28T00:48:02.029Z,95.04
2019-05-28T00:50:28.836Z,94.85
2019-05-28T00:52:55.374Z,94.99
2019-05-28T00:55:22.391Z,95.21
2019-05-28T00:57:50.146Z,95.96
2019-05-28T01:00:36.231Z,96.14
2019-05-28T01:02:50.384Z,96.08
2019-05-28T01:05:17.172Z,95.42
2019-05-28T01:07:43.963Z,95.96
2019-05-28T01:10:12.002Z,95.94
2019-05-28T01:12:38.472Z,95.66
2019-05-28T01:15:06.157Z,95.44
2019-05-28T01:17:32.783Z,95.34
2019-05-28T01:19:59.783Z,94.57
2019-05-28T01:22:26.562Z,94.55
2019-05-28T01:24:53.030Z,94.86
2019-05-28T01:27:19.977Z,94.68
2019-05-28T01:29:46.526Z,94.72
2019-05-28T01:32:13.286Z,94.60
2019-05-28T01:34:39.737Z,94.57
2019-05-28T01:37:06.311Z,94.32
2019-05-28T01:39:32.809Z,94.33
2019-05-28T01:41:59.567Z,94.08
2019-05-28T01:44:26.117Z,93.79
2019-05-28T01:46:52.590Z,93.72
2019-05-28T01:49:19.564Z,93.70
2019-05-28T01:51:46.386Z,93.97
2019-05-28T01:54:12.930Z,94.13
2019-05-28T01:56:39.452Z,94.15
2019-05-28T01:59:07.069Z,94.30
2019-05-28T02:01:33.719Z,94.34
2019-05-28T02:04:00.211Z,94.24
2019-05-28T02:06:26.867Z,94.03
2019-05-28T02:08:53.513Z,94.45
2019-05-28T02:11:20.128Z,94.66
2019-05-28T02:13:46.603Z,94.24
2019-05-28T02:16:13.155Z,94.37
2019-05-28T02:18:39.709Z,94.66
2019-05-28T02:21:06.292Z,94.63
2019-05-28T02:23:32.906Z,94.53
2019-05-28T02:25:59.395Z,94.79
2019-05-28T02:28:25.872Z,94.31
2019-05-28T02:30:52.405Z,94.28
2019-05-28T02:33:18.873Z,94.33
2019-05-28T02:35:45.431Z,94.56
2019-05-28T02:38:12.925Z,94.68
2019-05-28T02:40:39.392Z,94.48
2019-05-28T02:43:06.067Z,94.46
2019-05-28T02:45:32.821Z,94.40
2019-05-28T02:47:59.570Z,94.39
2019-05-28T02:50:55.594Z,94.57
2019-05-28T02:53:22.575Z,94.98
2019-05-28T02:55:50.281Z,95.00
2019-05-28T02:58:17.270Z,94.91
2019-05-28T03:00:44.576Z,94.99
2019-05-28T03:03:13.242Z,95.06
2019-05-28T03:05:40.393Z,95.18
2019-05-28T03:08:09.073Z,95.46
2019-05-28T03:11:00.377Z,95.23
2019-05-28T03:13:05.941Z,94.85
2019-05-28T03:15:33.693Z,94.74
2019-05-28T03:18:00.557Z,94.73
2019-05-28T03:20:27.457Z,94.56
2019-05-28T03:22:54.395Z,94.86
2019-05-28T03:25:21.678Z,94.80
2019-05-28T03:27:48.402Z,94.90
2019-05-28T03:30:15.168Z,94.74
2019-05-28T03:32:41.943Z,94.82
2019-05-28T03:35:08.651Z,94.90
2019-05-28T03:37:35.873Z,94.90
2019-05-28T03:40:04.382Z,95.06
2019-05-28T03:42:31.489Z,95.34
2019-05-28T03:44:58.572Z,95.27
2019-05-28T03:47:25.340Z,95.23
2019-05-28T03:49:51.915Z,95.05
2019-05-28T03:52:18.705Z,94.85
2019-05-28T03:54:45.341Z,94.84
2019-05-28T03:57:12.135Z,94.92
2019-05-28T03:59:39.849Z,95.04
2019-05-28T04:02:22.579Z,95.24
2019-05-28T04:04:36.182Z,95.29
2019-05-28T04:07:03.105Z,95.42
2019-05-28T04:09:33.739Z,95.59
2019-05-28T04:11:58.835Z,95.24
2019-05-28T04:14:25.424Z,95.36
2019-05-28T04:16:52.103Z,95.09
2019-05-28T04:19:18.599Z,95.08
2019-05-28T04:21:45.298Z,94.91
2019-05-28T04:24:11.918Z,94.98
2019-05-28T04:26:38.675Z,95.05
2019-05-28T04:29:05.220Z,95.28
2019-05-28T04:31:32.111Z,95.52
2019-05-28T04:33:58.845Z,95.33
2019-05-28T04:38:58.155Z,94.60
2019-05-28T04:41:25.101Z,95.04
2019-05-28T04:43:51.609Z,94.89
2019-05-28T04:46:19.226Z,94.42
2019-05-28T04:48:45.859Z,94.07
2019-05-28T04:51:12.430Z,94.06
2019-05-28T04:53:40.977Z,94.09
2019-05-28T04:56:07.676Z,93.97
2019-05-28T04:58:34.202Z,93.92
2019-05-28T05:01:05.604Z,94.18
2019-05-28T05:03:32.209Z,94.37
2019-05-28T05:06:00.000Z,95.11
2019-05-28T05:08:26.574Z,94.39
2019-05-28T05:10:53.214Z,93.77
2019-05-28T05:13:19.698Z,93.16
2019-05-28T05:15:47.192Z,92.67
2019-05-28T05:18:14.523Z,92.49
2019-05-28T05:20:41.273Z,92.33
2019-05-28T05:23:08.166Z,92.90
2019-05-28T05:25:34.777Z,92.85
2019-05-28T05:28:01.564Z,92.20
2019-05-28T05:30:28.455Z,91.07
2019-05-28T05:32:54.981Z,89.89
2019-05-28T05:35:21.996Z,89.28
2019-05-28T05:37:49.500Z,88.18
2019-05-28T05:40:16.295Z,87.88
2019-05-28T05:42:43.544Z,87.20
2019-05-28T05:45:10.438Z,86.46
2019-05-28T05:47:37.393Z,86.29
2019-05-28T05:50:04.881Z,85.57
2019-05-28T05:52:31.569Z,84.16
2019-05-28T05:54:58.204Z,84.25
2019-05-28T05:57:25.157Z,83.98
2019-05-28T05:59:51.956Z,84.11
2019-05-28T06:02:19.597Z,83.65
2019-05-28T06:04:46.224Z,83.40
2019-05-28T06:07:12.815Z,83.33
2019-05-28T06:09:39.638Z,83.52
2019-05-28T06:12:06.141Z,83.22
2019-05-28T06:14:33.113Z,82.23
2019-05-28T06:16:59.658Z,82.50
2019-05-28T06:19:26.311Z,81.71
2019-05-28T06:21:53.033Z,81.15
2019-05-28T06:24:19.539Z,79.25
2019-05-28T06:26:46.287Z,78.85
2019-05-28T06:29:13.512Z,79.78
2019-05-28T06:31:40.020Z,80.98
2019-05-28T06:34:06.643Z,81.80
2019-05-28T06:36:34.567Z,81.58
2019-05-28T06:39:01.624Z,82.16
2019-05-28T06:41:28.113Z,81.13
2019-05-28T06:43:54.780Z,81.08
2019-05-28T06:46:21.319Z,80.62
2019-05-28T06:48:48.963Z,80.47
2019-05-28T06:51:15.772Z,79.81
2019-05-28T06:53:42.493Z,79.27
2019-05-28T06:56:09.832Z,79.21
2019-05-28T06:58:39.915Z,79.13
2019-05-28T07:01:05.779Z,78.59
2019-05-28T07:03:36.223Z,78.07
2019-05-28T07:06:07.190Z,76.25
2019-05-28T07:08:32.487Z,75.96
2019-05-28T07:10:59.198Z,76.20
2019-05-28T07:13:25.914Z,75.88
2019-05-28T07:15:52.631Z,75.96
2019-05-28T07:18:19.176Z,75.85
2019-05-28T07:20:45.825Z,74.76
2019-05-28T07:23:12.366Z,75.10
2019-05-28T07:25:38.974Z,73.27
2019-05-28T07:28:10.794Z,73.21
2019-05-28T07:30:34.510Z,72.73
2019-05-28T07:33:01.234Z,72.04
2019-05-28T07:35:42.630Z,71.24
2019-05-28T07:37:57.093Z,66.32
2019-05-28T07:40:31.731Z,66.10
2019-05-28T07:42:53.592Z,65.37
2019-05-28T07:45:20.256Z,64.19
2019-05-28T07:47:47.102Z,62.87
2019-05-28T07:50:13.974Z,62.14
2019-05-28T07:52:40.596Z,61.14
2019-05-28T07:55:08.364Z,62.12
2019-05-28T07:57:35.083Z,61.34
2019-05-28T08:00:05.808Z,61.05
2019-05-28T08:02:32.919Z,60.20
2019-05-28T08:04:59.951Z,60.57
2019-05-28T08:07:26.846Z,60.04
2019-05-28T08:09:53.425Z,60.76
2019-05-28T08:12:20.106Z,60.76
2019-05-28T08:14:46.694Z,60.60
2019-05-28T08:17:13.541Z,61.21
2019-05-28T08:19:40.066Z,60.73
2019-05-28T08:22:06.897Z,60.73
2019-05-28T08:24:33.436Z,61.60
2019-05-28T08:27:03.444Z,61.60
2019-05-28T08:29:30.230Z,62.68
2019-05-28T08:31:57.002Z,62.04
2019-05-28T08:34:23.688Z,60.99
2019-05-28T08:37:04.388Z,60.99
2019-05-28T08:39:21.097Z,61.61
2019-05-28T08:41:55.932Z,62.26
2019-05-28T08:44:34.969Z,62.62
2019-05-28T08:47:10.669Z,62.62
2019-05-28T08:49:37.387Z,61.81
2019-05-28T08:52:04.081Z,62.69
2019-05-28T08:54:30.912Z,62.92
2019-05-28T08:56:57.619Z,60.33
2019-05-28T08:59:24.523Z,61.21
2019-05-28T09:01:51.167Z,60.10
2019-05-28T09:04:17.937Z,60.10
2019-05-28T09:06:44.633Z,59.32
2019-05-28T09:09:11.638Z,59.28
2019-05-28T09:11:38.322Z,58.75
2019-05-28T09:14:05.214Z,56.75
2019-05-28T09:16:31.857Z,55.40
2019-05-28T09:18:58.568Z,54.52
2019-05-28T09:21:25.370Z,54.39
2019-05-28T09:23:52.196Z,53.78
2019-05-28T09:26:19.715Z,53.77
2019-05-28T09:28:46.383Z,54.85
2019-05-28T09:31:13.041Z,54.01
2019-05-28T09:33:39.536Z,52.30
2019-05-28T09:36:08.484Z,53.31
2019-05-28T09:38:35.522Z,53.20
2019-05-28T09:41:05.758Z,52.08
2019-05-28T09:43:31.360Z,52.17
2019-05-28T09:45:58.204Z,52.38
2019-05-28T09:48:25.488Z,51.95
2019-05-28T09:50:52.111Z,49.59
2019-05-28T09:53:18.953Z,51.36
2019-05-28T09:55:45.904Z,52.06
2019-05-28T09:58:12.568Z,51.99
2019-05-28T10:00:56.678Z,51.16
2019-05-28T10:03:08.768Z,50.73
2019-05-28T10:05:35.377Z,50.41
2019-05-28T10:08:02.279Z,49.79
2019-05-28T10:10:31.672Z,49.90
2019-05-28T10:12:59.301Z,49.60
2019-05-28T10:15:30.466Z,49.68
2019-05-28T10:17:57.427Z,48.86
2019-05-28T10:20:28.137Z,49.63
2019-05-28T10:22:58.919Z,50.28
2019-05-28T10:25:26.569Z,50.18
2019-05-28T10:28:00.866Z,49.18
2019-05-28T10:30:26.453Z,50.33
2019-05-28T10:32:52.971Z,50.34
2019-05-28T10:37:59.412Z,50.42
2019-05-28T10:40:27.311Z,49.15
2019-05-28T10:42:54.044Z,50.08
2019-05-28T10:45:20.733Z,49.01
2019-05-28T10:47:47.308Z,48.13
2019-05-28T10:50:20.125Z,46.88
2019-05-28T10:52:46.631Z,47.69
2019-05-28T10:55:15.902Z,47.55
2019-05-28T10:57:42.840Z,46.45
2019-05-28T11:00:34.059Z,46.16
2019-05-28T11:03:01.390Z,47.04
2019-05-28T11:05:28.066Z,47.39
2019-05-28T11:07:56.179Z,47.15
2019-05-28T11:10:24.804Z,47.00
2019-05-28T11:12:51.556Z,47.04
2019-05-28T11:15:19.119Z,46.18
2019-05-28T11:17:45.834Z,45.57
2019-05-28T11:20:13.214Z,44.56
2019-05-28T11:22:39.927Z,45.77
2019-05-28T11:25:07.364Z,43.88
2019-05-28T11:27:33.958Z,43.87
2019-05-28T11:30:01.495Z,45.14
2019-05-28T11:32:28.116Z,45.50
2019-05-28T11:34:55.260Z,42.12
2019-05-28T11:37:21.936Z,43.39
2019-05-28T11:39:48.738Z,41.99
2019-05-28T11:42:15.405Z,41.26
2019-05-28T11:44:42.063Z,37.02
2019-05-28T11:47:08.771Z,37.96
2019-05-28T11:49:35.599Z,37.90
2019-05-28T11:52:03.413Z,36.53
2019-05-28T11:54:29.983Z,37.07
2019-05-28T11:56:56.816Z,36.50
2019-05-28T11:59:23.848Z,38.05
2019-05-28T12:01:50.424Z,40.16
2019-05-28T12:04:17.467Z,39.61
2019-05-28T12:06:44.026Z,40.54
2019-05-28T12:09:10.518Z,40.45
2019-05-28T12:11:37.757Z,40.64
2019-05-28T12:14:04.266Z,40.51
2019-05-28T12:16:33.519Z,40.89
2019-05-28T12:19:00.036Z,40.30
2019-05-28T12:21:32.429Z,39.94
2019-05-28T12:23:59.072Z,40.80
2019-05-28T12:26:25.655Z,40.13
2019-05-28T12:28:52.323Z,38.60
2019-05-28T12:31:18.869Z,38.99
2019-05-28T12:33:45.479Z,39.55
2019-05-28T12:36:14.919Z,39.95
2019-05-28T12:38:41.689Z,38.34
2019-05-28T12:41:08.326Z,38.24
2019-05-28T12:43:39.221Z,38.65
2019-05-28T12:46:05.781Z,39.38
2019-05-28T12:48:32.467Z,38.30
2019-05-28T12:51:02.165Z,38.98
2019-05-28T12:53:48.178Z,39.30
2019-05-28T12:55:56.375Z,39.24
2019-05-28T12:58:41.064Z,39.32
2019-05-28T13:00:52.030Z,40.17
2019-05-28T13:03:23.965Z,40.22
2019-05-28T13:05:50.593Z,40.77
2019-05-28T13:08:17.056Z,39.71
2019-05-28T13:10:43.730Z,40.21
2019-05-28T13:13:10.369Z,39.04
2019-05-28T13:15:41.818Z,38.33
2019-05-28T13:18:05.676Z,38.26
2019-05-28T13:20:32.482Z,38.36
2019-05-28T13:22:59.199Z,38.17
2019-05-28T13:25:25.813Z,39.84
2019-05-28T13:27:52.344Z,38.98
2019-05-28T13:30:19.468Z,37.40
2019-05-28T13:32:46.252Z,38.50
2019-05-28T13:35:13.698Z,38.18
2019-05-28T13:37:40.513Z,38.86
2019-05-28T13:40:08.294Z,39.15
2019-05-28T13:42:34.871Z,38.31
2019-05-28T13:45:01.732Z,37.84
2019-05-28T13:47:33.426Z,37.09
2019-05-28T13:49:57.473Z,37.44
2019-05-28T13:52:24.206Z,38.62
2019-05-28T13:54:51.789Z,37.96
2019-05-28T13:57:18.408Z,38.88
2019-05-28T13:59:44.984Z,37.92
2019-05-28T14:02:11.829Z,40.17
2019-05-28T14:04:38.451Z,45.78
2019-05-28T14:07:05.078Z,49.89
2019-05-28T14:09:31.696Z,52.54
2019-05-28T14:12:00.854Z,54.05
2019-05-28T14:14:27.692Z,56.08
2019-05-28T14:16:54.253Z,58.37
2019-05-28T14:19:21.063Z,60.22
2019-05-28T14:21:57.319Z,62.89
2019-05-28T14:24:24.026Z,70.00
2019-05-28T14:26:51.058Z,75.22
2019-05-28T14:29:17.644Z,75.22
2019-05-28T14:31:44.401Z,78.74
2019-05-28T14:34:11.694Z,79.51
2019-05-28T14:36:38.289Z,80.33
2019-05-28T14:39:06.886Z,81.53
2019-05-28T14:41:33.619Z,81.36
2019-05-28T14:44:01.738Z,83.18
2019-05-28T14:46:28.314Z,83.74
2019-05-28T14:48:55.201Z,84.08
2019-05-28T14:51:22.133Z,85.27
2019-05-28T14:53:49.439Z,86.26
2019-05-28T14:56:16.069Z,84.94
2019-05-28T14:58:42.605Z,84.25
2019-05-28T15:01:09.130Z,83.14
2019-05-28T15:03:35.712Z,85.18
2019-05-28T15:06:02.441Z,82.88
2019-05-28T15:08:30.014Z,83.71
2019-05-28T15:10:56.708Z,82.65
2019-05-28T15:13:23.240Z,83.05
2019-05-28T15:15:49.906Z,84.50
2019-05-28T15:18:19.285Z,82.93
2019-05-28T15:20:46.462Z,82.71
2019-05-28T15:23:13.329Z,83.37
2019-05-28T15:25:40.950Z,83.44
2019-05-28T15:28:08.049Z,85.03
2019-05-28T15:30:35.300Z,85.77
2019-05-28T15:35:15.717Z,84.45
2019-05-28T15:37:42.485Z,82.57
2019-05-28T15:40:10.403Z,83.94
2019-05-28T15:42:37.690Z,85.55
2019-05-28T15:45:04.818Z,86.10
2019-05-28T15:47:31.407Z,85.26
2019-05-28T15:49:58.226Z,85.67
2019-05-28T15:52:27.216Z,85.25
2019-05-28T15:54:54.267Z,87.02
2019-05-28T15:57:20.955Z,86.13
2019-05-28T15:59:47.566Z,85.68
2019-05-28T16:02:24.556Z,84.46
2019-05-28T16:04:52.872Z,84.18
2019-05-28T16:07:19.588Z,83.71
2019-05-28T16:09:56.195Z,84.53
2019-05-28T16:12:15.666Z,84.90
2019-05-28T16:14:42.191Z,84.10
2019-05-28T16:17:15.856Z,85.47
2019-05-28T16:19:42.472Z,86.84
2019-05-28T16:22:09.754Z,86.51
2019-05-28T16:24:36.409Z,85.39
2019-05-28T16:27:04.716Z,84.70
2019-05-28T16:29:34.705Z,82.95
2019-05-28T16:32:04.509Z,82.96
2019-05-28T16:34:31.097Z,85.19
2019-05-28T16:36:57.647Z,85.34
2019-05-28T16:39:24.292Z,85.95
2019-05-28T16:41:51.229Z,86.56
2019-05-28T16:44:18.117Z,84.75
2019-05-28T16:46:45.160Z,86.13
2019-05-28T16:49:12.237Z,85.63
2019-05-28T16:51:39.219Z,87.12
2019-05-28T16:54:18.755Z,86.35
2019-05-28T16:56:34.533Z,86.21
2019-05-28T16:59:16.084Z,88.02
2019-05-28T17:01:48.062Z,88.01
2019-05-28T17:04:15.001Z,89.36
2019-05-28T17:06:42.055Z,89.11
2019-05-28T17:09:08.782Z,89.51
2019-05-28T17:11:36.678Z,90.84
2019-05-28T17:14:03.809Z,92.13
2019-05-28T17:16:30.384Z,92.86
2019-05-28T17:18:57.023Z,92.61
2019-05-28T17:21:23.807Z,91.75
2019-05-28T17:23:50.537Z,89.91
2019-05-28T17:26:17.139Z,89.94
2019-05-28T17:28:43.623Z,88.72
2019-05-28T17:31:10.134Z,89.29
2019-05-28T17:33:36.840Z,89.86
2019-05-28T17:36:05.791Z,89.34
2019-05-28T17:38:32.409Z,89.34
2019-05-28T17:40:59.377Z,90.57
2019-05-28T17:43:26.939Z,90.55
2019-05-28T17:45:53.685Z,90.86
2019-05-28T17:48:21.266Z,91.64
2019-05-28T17:50:47.805Z,94.27
2019-05-28T17:53:15.083Z,96.15
2019-05-28T17:55:46.971Z,94.30
2019-05-28T17:58:14.543Z,94.67
2019-05-28T18:00:41.743Z,94.55
2019-05-28T18:03:08.807Z,95.27
2019-05-28T18:05:35.923Z,94.98
2019-05-28T18:08:02.619Z,95.40
2019-05-28T18:10:29.450Z,95.62
2019-05-28T18:12:57.862Z,95.75
2019-05-28T18:15:24.628Z,94.82
2019-05-28T18:17:51.267Z,94.93
2019-05-28T18:20:18.564Z,95.78
2019-05-28T18:22:45.492Z,95.63
2019-05-28T18:25:12.369Z,96.34
2019-05-28T18:27:39.063Z,96.16
2019-05-28T18:30:06.019Z,96.61
2019-05-28T18:32:32.927Z,96.17
2019-05-28T18:34:59.557Z,96.25
2019-05-28T18:37:26.463Z,95.98
2019-05-28T18:39:53.158Z,96.24
2019-05-28T18:42:21.608Z,96.17
2019-05-28T18:44:48.275Z,96.19
2019-05-28T18:47:14.924Z,96.46
2019-05-28T18:49:41.533Z,96.28
2019-05-28T18:52:08.440Z,95.58
2019-05-28T18:54:35.111Z,94.63
2019-05-28T18:57:02.128Z,95.30
2019-05-28T18:59:28.949Z,95.51
2019-05-28T19:01:58.973Z,95.97
2019-05-28T19:04:25.586Z,96.12
2019-05-28T19:06:52.386Z,96.75
2019-05-28T19:09:19.022Z,96.99
2019-05-28T19:11:45.704Z,97.15
2019-05-28T19:14:12.635Z,97.81
2019-05-28T19:16:39.633Z,97.97
2019-05-28T19:19:06.684Z,97.25
2019-05-28T19:21:33.239Z,96.61
2019-05-28T19:24:00.058Z,95.61
2019-05-28T19:26:26.715Z,95.07
2019-05-28T19:28:53.188Z,95.07
2019-05-28T19:31:19.873Z,95.59
2019-05-28T19:33:46.637Z,95.55
2019-05-28T19:36:13.555Z,95.34
2019-05-28T19:38:45.557Z,96.24
2019-05-28T19:41:10.283Z,96.38
2019-05-28T19:43:37.272Z,97.07
2019-05-28T19:46:04.617Z,97.20
2019-05-28T19:48:31.134Z,97.84
2019-05-28T19:50:57.687Z,98.08
2019-05-28T19:53:24.584Z,98.88
2019-05-28T19:55:51.215Z,99.04
2019-05-28T19:58:18.011Z,99.25
2019-05-28T20:00:44.725Z,99.17
2019-05-28T20:03:11.316Z,99.53
2019-05-28T20:05:37.935Z,99.48
2019-05-28T20:08:04.743Z,99.36
2019-05-28T20:10:31.348Z,99.68
2019-05-28T20:12:58.990Z,100.00
2019-05-28T20:15:26.135Z,100.00
2019-05-28T20:17:54.557Z,100.00
2019-05-28T20:20:21.205Z,100.00
2019-05-28T20:22:47.873Z,100.00
2019-05-28T20:25:14.685Z,100.00
2019-05-28T20:27:41.173Z,100.00
2019-05-28T20:30:09.390Z,100.00
2019-05-28T20:32:36.995Z,100.00
2019-05-28T20:35:05.415Z,100.00
2019-05-28T20:37:32.043Z,100.00
2019-05-28T20:40:03.905Z,100.00
2019-05-28T20:42:31.043Z,100.00
2019-05-28T20:45:02.453Z,100.00
2019-05-28T20:47:26.306Z,100.00
2019-05-28T20:49:53.379Z,100.00
2019-05-28T20:52:19.929Z,100.00
2019-05-28T20:54:46.839Z,100.00
2019-05-28T20:57:13.682Z,100.00
2019-05-28T20:59:40.186Z,100.00
2019-05-28T21:02:06.735Z,100.00
2019-05-28T21:04:33.287Z,100.00
2019-05-28T21:06:59.768Z,100.00
2019-05-28T21:09:26.292Z,100.00
2019-05-28T21:11:54.540Z,100.00
2019-05-28T21:14:21.055Z,100.00
2019-05-28T21:16:48.902Z,100.00
2019-05-28T21:19:15.674Z,100.00
2019-05-28T21:21:42.496Z,100.00
2019-05-28T21:24:10.097Z,100.00
2019-05-28T21:26:36.607Z,100.00
2019-05-28T21:29:03.338Z,100.00
2019-05-28T21:31:29.870Z,100.00
2019-05-28T21:33:57.255Z,100.00
2019-05-28T21:36:24.092Z,100.00
2019-05-28T21:38:51.207Z,100.00
2019-05-28T21:41:17.689Z,100.00
2019-05-28T21:43:44.277Z,100.00
2019-05-28T21:46:10.886Z,100.00
2019-05-28T21:48:37.385Z,100.00
2019-05-28T21:51:03.954Z,100.00
2019-05-28T21:53:31.564Z,100.00
2019-05-28T21:55:59.352Z,100.00
2019-05-28T21:58:26.090Z,100.00
2019-05-28T22:00:55.979Z,100.00
2019-05-28T22:03:22.408Z,100.00
2019-05-28T22:05:48.952Z,100.00
2019-05-28T22:08:15.644Z,100.00
2019-05-28T22:10:43.194Z,100.00
2019-05-28T22:13:21.284Z,100.00
2019-05-28T22:15:38.120Z,100.00
2019-05-28T22:18:05.007Z,100.00
2019-05-28T22:20:31.534Z,100.00
2019-05-28T22:22:58.423Z,100.00
2019-05-28T22:25:24.938Z,100.00
2019-05-28T22:27:51.548Z,100.00
2019-05-28T22:30:18.150Z,100.00
2019-05-28T22:32:44.692Z,100.00
2019-05-28T22:35:11.375Z,100.00
2019-05-28T22:37:38.023Z,100.00
2019-05-28T22:40:06.010Z,100.00
2019-05-28T22:42:32.646Z,100.00
2019-05-28T22:44:59.189Z,100.00
2019-05-28T22:47:26.053Z,100.00
2019-05-28T22:49:52.574Z,100.00
2019-05-28T22:52:19.050Z,100.00
2019-05-28T22:54:45.707Z,100.00
2019-05-28T22:57:12.205Z,100.00
2019-05-28T22:59:38.906Z,100.00
2019-05-28T23:02:06.918Z,100.00
2019-05-28T23:04:33.876Z,100.00
2019-05-28T23:07:01.318Z,100.00
2019-05-28T23:09:28.020Z,100.00
2019-05-28T23:11:54.537Z,100.00
2019-05-28T23:14:22.036Z,100.00
2019-05-28T23:16:48.799Z,100.00
2019-05-28T23:19:15.343Z,100.00
2019-05-28T23:21:41.854Z,100.00
2019-05-28T23:24:09.318Z,100.00
2019-05-28T23:26:36.988Z,100.00
2019-05-28T23:29:03.866Z,100.00
2019-05-28T23:31:30.347Z,100.00
2019-05-28T23:33:56.811Z,100.00
2019-05-28T23:36:23.341Z,100.00
2019-05-28T23:38:50.340Z,100.00
2019-05-28T23:41:16.795Z,100.00
2019-05-28T23:43:43.353Z,99.93
2019-05-28T23:46:10.025Z,100.00
2019-05-28T23:48:36.643Z,100.00
2019-05-28T23:51:04.254Z,100.00
2019-05-28T23:53:30.942Z,100.00
2019-05-28T23:55:57.562Z,100.00
2019-05-28T23:58:24.052Z,100.00
